sensor_id;sensor_type;location;lat;lon;timestamp;pressure;altitude;pressure_sealevel;temperature
44429;BMP180;30134;47.866;-4.222;2022-08-24T00:02:14;101683.00;;;28.10
44429;BMP180;30134;47.866;-4.222;2022-08-24T00:04:42;101686.00;;;28.00
44429;BMP180;30134;47.866;-4.222;2022-08-24T00:07:07;101687.00;;;28.00
44429;BMP180;30134;47.866;-4.222;2022-08-24T00:09:34;101682.00;;;28.00
44429;BMP180;30134;47.866;-4.222;2022-08-24T00:12:00;101678.00;;;28.10
44429;BMP180;30134;47.866;-4.222;2022-08-24T00:14:26;101676.00;;;28.00
44429;BMP180;30134;47.866;-4.222;2022-08-24T00:16:52;101679.00;;;28.10
44429;BMP180;30134;47.866;-4.222;2022-08-24T00:19:19;101675.00;;;27.90
44429;BMP180;30134;47.866;-4.222;2022-08-24T00:21:45;101675.00;;;28.00
44429;BMP180;30134;47.866;-4.222;2022-08-24T00:24:10;101677.00;;;28.00
44429;BMP180;30134;47.866;-4.222;2022-08-24T00:26:36;101677.00;;;28.10
44429;BMP180;30134;47.866;-4.222;2022-08-24T00:29:03;101678.00;;;28.10
44429;BMP180;30134;47.866;-4.222;2022-08-24T00:31:29;101669.00;;;28.00
44429;BMP180;30134;47.866;-4.222;2022-08-24T00:33:54;101670.00;;;28.10
44429;BMP180;30134;47.866;-4.222;2022-08-24T00:36:22;101678.00;;;28.10
44429;BMP180;30134;47.866;-4.222;2022-08-24T00:38:49;101671.00;;;28.00
44429;BMP180;30134;47.866;-4.222;2022-08-24T00:41:15;101670.00;;;28.00
44429;BMP180;30134;47.866;-4.222;2022-08-24T00:43:56;101665.00;;;28.00
44429;BMP180;30134;47.866;-4.222;2022-08-24T00:49:28;101662.00;;;27.90
44429;BMP180;30134;47.866;-4.222;2022-08-24T00:54:32;101657.00;;;28.00
44429;BMP180;30134;47.866;-4.222;2022-08-24T00:57:03;101651.00;;;27.90
44429;BMP180;30134;47.866;-4.222;2022-08-24T00:59:33;101647.00;;;28.00
44429;BMP180;30134;47.866;-4.222;2022-08-24T01:02:10;101645.00;;;28.00
44429;BMP180;30134;47.866;-4.222;2022-08-24T01:04:55;101649.00;;;28.00
44429;BMP180;30134;47.866;-4.222;2022-08-24T01:07:24;101643.00;;;28.20
44429;BMP180;30134;47.866;-4.222;2022-08-24T01:09:54;101634.00;;;27.90
44429;BMP180;30134;47.866;-4.222;2022-08-24T01:12:21;101635.00;;;28.10
44429;BMP180;30134;47.866;-4.222;2022-08-24T01:14:47;101634.00;;;28.10
44429;BMP180;30134;47.866;-4.222;2022-08-24T01:17:13;101631.00;;;28.10
44429;BMP180;30134;47.866;-4.222;2022-08-24T01:19:58;101630.00;;;27.90
44429;BMP180;30134;47.866;-4.222;2022-08-24T01:25:24;101626.00;;;28.10
44429;BMP180;30134;47.866;-4.222;2022-08-24T01:27:51;101635.00;;;28.00
44429;BMP180;30134;47.866;-4.222;2022-08-24T01:30:18;101631.00;;;28.10
44429;BMP180;30134;47.866;-4.222;2022-08-24T01:32:56;101631.00;;;28.10
44429;BMP180;30134;47.866;-4.222;2022-08-24T01:35:22;101630.00;;;28.10
44429;BMP180;30134;47.866;-4.222;2022-08-24T01:37:49;101630.00;;;28.10
44429;BMP180;30134;47.866;-4.222;2022-08-24T01:40:16;101630.00;;;28.10
44429;BMP180;30134;47.866;-4.222;2022-08-24T01:42:50;101621.00;;;28.00
44429;BMP180;30134;47.866;-4.222;2022-08-24T01:45:18;101628.00;;;28.00
44429;BMP180;30134;47.866;-4.222;2022-08-24T01:47:45;101631.00;;;28.10
44429;BMP180;30134;47.866;-4.222;2022-08-24T01:50:11;101627.00;;;28.00
44429;BMP180;30134;47.866;-4.222;2022-08-24T01:52:39;101633.00;;;28.00
44429;BMP180;30134;47.866;-4.222;2022-08-24T01:55:08;101627.00;;;28.10
44429;BMP180;30134;47.866;-4.222;2022-08-24T01:57:34;101629.00;;;27.90
44429;BMP180;30134;47.866;-4.222;2022-08-24T01:59:59;101626.00;;;27.90
44429;BMP180;30134;47.866;-4.222;2022-08-24T02:02:27;101619.00;;;28.10
44429;BMP180;30134;47.866;-4.222;2022-08-24T02:04:53;101621.00;;;28.10
44429;BMP180;30134;47.866;-4.222;2022-08-24T02:07:19;101618.00;;;28.00
44429;BMP180;30134;47.866;-4.222;2022-08-24T02:09:46;101619.00;;;28.00
44429;BMP180;30134;47.866;-4.222;2022-08-24T02:12:12;101615.00;;;28.10
44429;BMP180;30134;47.866;-4.222;2022-08-24T02:14:38;101615.00;;;28.00
44429;BMP180;30134;47.866;-4.222;2022-08-24T02:17:05;101621.00;;;28.00
44429;BMP180;30134;47.866;-4.222;2022-08-24T02:19:31;101622.00;;;27.90
44429;BMP180;30134;47.866;-4.222;2022-08-24T02:21:57;101621.00;;;28.00
44429;BMP180;30134;47.866;-4.222;2022-08-24T02:24:24;101626.00;;;27.90
44429;BMP180;30134;47.866;-4.222;2022-08-24T02:26:49;101623.00;;;28.10
44429;BMP180;30134;47.866;-4.222;2022-08-24T02:29:15;101617.00;;;27.90
44429;BMP180;30134;47.866;-4.222;2022-08-24T02:31:42;101614.00;;;28.10
44429;BMP180;30134;47.866;-4.222;2022-08-24T02:34:08;101619.00;;;27.90
44429;BMP180;30134;47.866;-4.222;2022-08-24T02:36:34;101617.00;;;28.10
44429;BMP180;30134;47.866;-4.222;2022-08-24T02:39:00;101613.00;;;28.00
44429;BMP180;30134;47.866;-4.222;2022-08-24T02:41:27;101620.00;;;28.00
44429;BMP180;30134;47.866;-4.222;2022-08-24T02:43:54;101624.00;;;27.80
44429;BMP180;30134;47.866;-4.222;2022-08-24T02:46:23;101620.00;;;28.10
44429;BMP180;30134;47.866;-4.222;2022-08-24T02:48:50;101624.00;;;28.00
44429;BMP180;30134;47.866;-4.222;2022-08-24T02:51:29;101623.00;;;28.10
44429;BMP180;30134;47.866;-4.222;2022-08-24T02:53:57;101621.00;;;28.10
44429;BMP180;30134;47.866;-4.222;2022-08-24T02:56:23;101628.00;;;28.00
44429;BMP180;30134;47.866;-4.222;2022-08-24T02:58:49;101629.00;;;27.80
44429;BMP180;30134;47.866;-4.222;2022-08-24T03:01:15;101628.00;;;28.00
44429;BMP180;30134;47.866;-4.222;2022-08-24T03:03:42;101621.00;;;28.00
44429;BMP180;30134;47.866;-4.222;2022-08-24T03:06:09;101621.00;;;28.00
44429;BMP180;30134;47.866;-4.222;2022-08-24T03:08:35;101625.00;;;28.00
44429;BMP180;30134;47.866;-4.222;2022-08-24T03:11:01;101622.00;;;28.00
44429;BMP180;30134;47.866;-4.222;2022-08-24T03:13:28;101623.00;;;27.80
44429;BMP180;30134;47.866;-4.222;2022-08-24T03:15:56;101616.00;;;28.00
44429;BMP180;30134;47.866;-4.222;2022-08-24T03:18:23;101619.00;;;28.10
44429;BMP180;30134;47.866;-4.222;2022-08-24T03:20:52;101620.00;;;28.00
44429;BMP180;30134;47.866;-4.222;2022-08-24T03:23:18;101622.00;;;28.00
44429;BMP180;30134;47.866;-4.222;2022-08-24T03:25:44;101626.00;;;28.00
44429;BMP180;30134;47.866;-4.222;2022-08-24T03:28:10;101614.00;;;28.00
44429;BMP180;30134;47.866;-4.222;2022-08-24T03:30:38;101609.00;;;28.00
44429;BMP180;30134;47.866;-4.222;2022-08-24T03:33:05;101607.00;;;27.90
44429;BMP180;30134;47.866;-4.222;2022-08-24T03:35:32;101616.00;;;28.00
44429;BMP180;30134;47.866;-4.222;2022-08-24T03:37:59;101605.00;;;28.00
44429;BMP180;30134;47.866;-4.222;2022-08-24T03:40:25;101609.00;;;27.90
44429;BMP180;30134;47.866;-4.222;2022-08-24T03:42:51;101604.00;;;28.00
44429;BMP180;30134;47.866;-4.222;2022-08-24T03:45:18;101607.00;;;28.00
44429;BMP180;30134;47.866;-4.222;2022-08-24T03:47:45;101604.00;;;27.90
44429;BMP180;30134;47.866;-4.222;2022-08-24T03:50:11;101604.00;;;27.90
44429;BMP180;30134;47.866;-4.222;2022-08-24T03:52:37;101602.00;;;27.80
44429;BMP180;30134;47.866;-4.222;2022-08-24T03:55:05;101603.00;;;27.90
44429;BMP180;30134;47.866;-4.222;2022-08-24T03:57:31;101604.00;;;27.90
44429;BMP180;30134;47.866;-4.222;2022-08-24T03:59:57;101602.00;;;28.00
44429;BMP180;30134;47.866;-4.222;2022-08-24T04:02:25;101601.00;;;27.90
44429;BMP180;30134;47.866;-4.222;2022-08-24T04:04:51;101590.00;;;27.80
44429;BMP180;30134;47.866;-4.222;2022-08-24T04:07:17;101593.00;;;28.00
44429;BMP180;30134;47.866;-4.222;2022-08-24T04:09:43;101594.00;;;27.70
44429;BMP180;30134;47.866;-4.222;2022-08-24T04:12:09;101596.00;;;27.90
44429;BMP180;30134;47.866;-4.222;2022-08-24T04:14:35;101592.00;;;27.90
44429;BMP180;30134;47.866;-4.222;2022-08-24T04:17:01;101597.00;;;28.10
44429;BMP180;30134;47.866;-4.222;2022-08-24T04:19:27;101601.00;;;27.90
44429;BMP180;30134;47.866;-4.222;2022-08-24T04:21:53;101594.00;;;28.00
44429;BMP180;30134;47.866;-4.222;2022-08-24T04:24:22;101593.00;;;27.90
44429;BMP180;30134;47.866;-4.222;2022-08-24T04:26:48;101584.00;;;28.00
44429;BMP180;30134;47.866;-4.222;2022-08-24T04:29:14;101580.00;;;27.80
44429;BMP180;30134;47.866;-4.222;2022-08-24T04:31:41;101585.00;;;28.10
44429;BMP180;30134;47.866;-4.222;2022-08-24T04:34:08;101594.00;;;27.80
44429;BMP180;30134;47.866;-4.222;2022-08-24T04:36:34;101591.00;;;28.00
44429;BMP180;30134;47.866;-4.222;2022-08-24T04:39:01;101589.00;;;27.90
44429;BMP180;30134;47.866;-4.222;2022-08-24T04:41:27;101591.00;;;28.00
44429;BMP180;30134;47.866;-4.222;2022-08-24T04:43:52;101591.00;;;27.80
44429;BMP180;30134;47.866;-4.222;2022-08-24T04:46:19;101586.00;;;28.00
44429;BMP180;30134;47.866;-4.222;2022-08-24T04:48:47;101587.00;;;27.80
44429;BMP180;30134;47.866;-4.222;2022-08-24T04:51:15;101599.00;;;28.00
44429;BMP180;30134;47.866;-4.222;2022-08-24T04:53:44;101591.00;;;27.80
44429;BMP180;30134;47.866;-4.222;2022-08-24T04:56:16;101589.00;;;28.00
44429;BMP180;30134;47.866;-4.222;2022-08-24T04:58:42;101595.00;;;27.80
44429;BMP180;30134;47.866;-4.222;2022-08-24T05:01:15;101599.00;;;28.00
44429;BMP180;30134;47.866;-4.222;2022-08-24T05:03:44;101599.00;;;27.80
44429;BMP180;30134;47.866;-4.222;2022-08-24T05:06:12;101597.00;;;27.90
44429;BMP180;30134;47.866;-4.222;2022-08-24T05:08:40;101600.00;;;27.80
44429;BMP180;30134;47.866;-4.222;2022-08-24T05:11:06;101602.00;;;27.90
44429;BMP180;30134;47.866;-4.222;2022-08-24T05:13:36;101607.00;;;27.80
44429;BMP180;30134;47.866;-4.222;2022-08-24T05:16:08;101615.00;;;27.90
44429;BMP180;30134;47.866;-4.222;2022-08-24T05:18:34;101616.00;;;27.80
44429;BMP180;30134;47.866;-4.222;2022-08-24T05:21:00;101619.00;;;27.90
44429;BMP180;30134;47.866;-4.222;2022-08-24T05:23:26;101606.00;;;27.80
44429;BMP180;30134;47.866;-4.222;2022-08-24T05:26:05;101614.00;;;27.90
44429;BMP180;30134;47.866;-4.222;2022-08-24T05:28:31;101616.00;;;27.90
44429;BMP180;30134;47.866;-4.222;2022-08-24T05:31:11;101618.00;;;27.90
44429;BMP180;30134;47.866;-4.222;2022-08-24T05:33:37;101614.00;;;27.80
44429;BMP180;30134;47.866;-4.222;2022-08-24T05:36:04;101615.00;;;27.90
44429;BMP180;30134;47.866;-4.222;2022-08-24T05:38:31;101617.00;;;27.90
44429;BMP180;30134;47.866;-4.222;2022-08-24T05:41:02;101618.00;;;27.90
44429;BMP180;30134;47.866;-4.222;2022-08-24T05:43:28;101620.00;;;27.70
44429;BMP180;30134;47.866;-4.222;2022-08-24T05:45:54;101631.00;;;27.90
44429;BMP180;30134;47.866;-4.222;2022-08-24T05:48:20;101631.00;;;27.90
44429;BMP180;30134;47.866;-4.222;2022-08-24T05:50:56;101629.00;;;27.90
44429;BMP180;30134;47.866;-4.222;2022-08-24T05:53:23;101630.00;;;27.80
44429;BMP180;30134;47.866;-4.222;2022-08-24T05:55:50;101630.00;;;27.90
44429;BMP180;30134;47.866;-4.222;2022-08-24T05:58:16;101628.00;;;27.90
44429;BMP180;30134;47.866;-4.222;2022-08-24T06:00:42;101635.00;;;27.80
44429;BMP180;30134;47.866;-4.222;2022-08-24T06:03:13;101629.00;;;27.80
44429;BMP180;30134;47.866;-4.222;2022-08-24T06:05:40;101638.00;;;27.80
44429;BMP180;30134;47.866;-4.222;2022-08-24T06:08:07;101640.00;;;27.70
44429;BMP180;30134;47.866;-4.222;2022-08-24T06:10:44;101636.00;;;27.70
44429;BMP180;30134;47.866;-4.222;2022-08-24T06:13:12;101630.00;;;27.80
44429;BMP180;30134;47.866;-4.222;2022-08-24T06:15:39;101639.00;;;27.70
44429;BMP180;30134;47.866;-4.222;2022-08-24T06:18:05;101639.00;;;27.80
44429;BMP180;30134;47.866;-4.222;2022-08-24T06:20:32;101641.00;;;27.90
44429;BMP180;30134;47.866;-4.222;2022-08-24T06:23:01;101632.00;;;27.80
44429;BMP180;30134;47.866;-4.222;2022-08-24T06:25:27;101634.00;;;27.80
44429;BMP180;30134;47.866;-4.222;2022-08-24T06:28:11;101638.00;;;27.80
44429;BMP180;30134;47.866;-4.222;2022-08-24T06:30:37;101632.00;;;27.90
44429;BMP180;30134;47.866;-4.222;2022-08-24T06:33:04;101634.00;;;27.70
44429;BMP180;30134;47.866;-4.222;2022-08-24T06:35:30;101635.00;;;27.70
44429;BMP180;30134;47.866;-4.222;2022-08-24T06:37:56;101631.00;;;28.00
44429;BMP180;30134;47.866;-4.222;2022-08-24T06:40:22;101629.00;;;27.80
44429;BMP180;30134;47.866;-4.222;2022-08-24T06:42:50;101635.00;;;27.80
44429;BMP180;30134;47.866;-4.222;2022-08-24T06:45:17;101646.00;;;27.90
44429;BMP180;30134;47.866;-4.222;2022-08-24T06:47:53;101644.00;;;27.90
44429;BMP180;30134;47.866;-4.222;2022-08-24T06:50:21;101640.00;;;27.70
44429;BMP180;30134;47.866;-4.222;2022-08-24T06:52:48;101640.00;;;27.90
44429;BMP180;30134;47.866;-4.222;2022-08-24T06:55:14;101650.00;;;27.90
44429;BMP180;30134;47.866;-4.222;2022-08-24T06:57:40;101639.00;;;27.80
44429;BMP180;30134;47.866;-4.222;2022-08-24T07:00:06;101637.00;;;28.00
44429;BMP180;30134;47.866;-4.222;2022-08-24T07:02:34;101632.00;;;27.80
44429;BMP180;30134;47.866;-4.222;2022-08-24T07:05:00;101642.00;;;27.90
44429;BMP180;30134;47.866;-4.222;2022-08-24T07:07:27;101644.00;;;28.00
44429;BMP180;30134;47.866;-4.222;2022-08-24T07:09:53;101645.00;;;27.40
44429;BMP180;30134;47.866;-4.222;2022-08-24T07:12:20;101649.00;;;27.50
44429;BMP180;30134;47.866;-4.222;2022-08-24T07:14:46;101648.00;;;27.40
44429;BMP180;30134;47.866;-4.222;2022-08-24T07:17:11;101637.00;;;27.80
44429;BMP180;30134;47.866;-4.222;2022-08-24T07:19:37;101650.00;;;27.40
44429;BMP180;30134;47.866;-4.222;2022-08-24T07:22:03;101641.00;;;27.70
44429;BMP180;30134;47.866;-4.222;2022-08-24T07:24:29;101640.00;;;27.20
44429;BMP180;30134;47.866;-4.222;2022-08-24T07:26:54;101642.00;;;27.40
44429;BMP180;30134;47.866;-4.222;2022-08-24T07:29:20;101649.00;;;27.40
44429;BMP180;30134;47.866;-4.222;2022-08-24T07:31:46;101649.00;;;27.70
44429;BMP180;30134;47.866;-4.222;2022-08-24T07:34:13;101647.00;;;27.30
44429;BMP180;30134;47.866;-4.222;2022-08-24T07:36:40;101650.00;;;27.60
44429;BMP180;30134;47.866;-4.222;2022-08-24T07:39:07;101639.00;;;27.50
44429;BMP180;30134;47.866;-4.222;2022-08-24T07:41:37;101642.00;;;27.50
44429;BMP180;30134;47.866;-4.222;2022-08-24T07:44:04;101641.00;;;27.20
44429;BMP180;30134;47.866;-4.222;2022-08-24T07:46:30;101649.00;;;27.70
44429;BMP180;30134;47.866;-4.222;2022-08-24T07:48:57;101649.00;;;27.20
44429;BMP180;30134;47.866;-4.222;2022-08-24T07:51:23;101646.00;;;27.50
44429;BMP180;30134;47.866;-4.222;2022-08-24T07:53:49;101639.00;;;27.20
44429;BMP180;30134;47.866;-4.222;2022-08-24T07:56:15;101638.00;;;27.60
44429;BMP180;30134;47.866;-4.222;2022-08-24T07:58:41;101640.00;;;27.20
44429;BMP180;30134;47.866;-4.222;2022-08-24T08:01:08;101639.00;;;27.50
44429;BMP180;30134;47.866;-4.222;2022-08-24T08:03:34;101642.00;;;27.30
44429;BMP180;30134;47.866;-4.222;2022-08-24T08:06:05;101646.00;;;27.50
44429;BMP180;30134;47.866;-4.222;2022-08-24T08:08:34;101649.00;;;27.40
44429;BMP180;30134;47.866;-4.222;2022-08-24T08:11:01;101649.00;;;27.50
44429;BMP180;30134;47.866;-4.222;2022-08-24T08:13:29;101641.00;;;27.10
44429;BMP180;30134;47.866;-4.222;2022-08-24T08:15:55;101642.00;;;27.30
44429;BMP180;30134;47.866;-4.222;2022-08-24T08:18:22;101644.00;;;27.10
44429;BMP180;30134;47.866;-4.222;2022-08-24T08:20:48;101647.00;;;27.40
44429;BMP180;30134;47.866;-4.222;2022-08-24T08:23:14;101640.00;;;27.50
44429;BMP180;30134;47.866;-4.222;2022-08-24T08:25:59;101637.00;;;27.40
44429;BMP180;30134;47.866;-4.222;2022-08-24T08:28:28;101645.00;;;27.40
44429;BMP180;30134;47.866;-4.222;2022-08-24T08:31:00;101644.00;;;27.50
44429;BMP180;30134;47.866;-4.222;2022-08-24T08:33:26;101641.00;;;27.40
44429;BMP180;30134;47.866;-4.222;2022-08-24T08:36:02;101631.00;;;27.50
44429;BMP180;30134;47.866;-4.222;2022-08-24T08:38:28;101633.00;;;27.30
44429;BMP180;30134;47.866;-4.222;2022-08-24T08:43:56;101637.00;;;27.30
44429;BMP180;30134;47.866;-4.222;2022-08-24T08:55:32;101650.00;;;27.30
44429;BMP180;30134;47.866;-4.222;2022-08-24T09:04:02;101637.00;;;27.20
44429;BMP180;30134;47.866;-4.222;2022-08-24T09:19:55;101637.00;;;27.00
44429;BMP180;30134;47.866;-4.222;2022-08-24T09:22:26;101633.00;;;27.30
44429;BMP180;30134;47.866;-4.222;2022-08-24T09:35:33;101619.00;;;27.40
44429;BMP180;30134;47.866;-4.222;2022-08-24T10:18:28;101605.00;;;27.50
44429;BMP180;30134;47.866;-4.222;2022-08-24T10:20:47;101605.00;;;27.50
44429;BMP180;30134;47.866;-4.222;2022-08-24T10:23:49;101583.00;;;27.50
44429;BMP180;30134;47.866;-4.222;2022-08-24T10:26:28;101591.00;;;27.60
44429;BMP180;30134;47.866;-4.222;2022-08-24T10:32:14;101591.00;;;27.40
44429;BMP180;30134;47.866;-4.222;2022-08-24T10:35:01;101576.00;;;27.30
44429;BMP180;30134;47.866;-4.222;2022-08-24T10:41:39;101570.00;;;27.60
44429;BMP180;30134;47.866;-4.222;2022-08-24T10:54:55;101568.00;;;27.40
44429;BMP180;30134;47.866;-4.222;2022-08-24T10:57:42;101570.00;;;27.50
44429;BMP180;30134;47.866;-4.222;2022-08-24T11:00:15;101569.00;;;27.50
44429;BMP180;30134;47.866;-4.222;2022-08-24T11:02:43;101572.00;;;27.30
44429;BMP180;30134;47.866;-4.222;2022-08-24T11:05:15;101577.00;;;27.60
44429;BMP180;30134;47.866;-4.222;2022-08-24T11:07:57;101576.00;;;27.50
44429;BMP180;30134;47.866;-4.222;2022-08-24T11:10:26;101573.00;;;27.50
44429;BMP180;30134;47.866;-4.222;2022-08-24T11:12:53;101576.00;;;27.40
44429;BMP180;30134;47.866;-4.222;2022-08-24T11:15:23;101575.00;;;27.70
44429;BMP180;30134;47.866;-4.222;2022-08-24T11:18:01;101567.00;;;27.30
44429;BMP180;30134;47.866;-4.222;2022-08-24T11:20:33;101571.00;;;27.60
44429;BMP180;30134;47.866;-4.222;2022-08-24T11:23:03;101567.00;;;27.50
44429;BMP180;30134;47.866;-4.222;2022-08-24T11:25:32;101553.00;;;27.50
44429;BMP180;30134;47.866;-4.222;2022-08-24T11:28:05;101548.00;;;27.30
44429;BMP180;30134;47.866;-4.222;2022-08-24T11:30:39;101555.00;;;27.50
44429;BMP180;30134;47.866;-4.222;2022-08-24T11:33:23;101560.00;;;27.50
44429;BMP180;30134;47.866;-4.222;2022-08-24T11:35:50;101564.00;;;27.50
44429;BMP180;30134;47.866;-4.222;2022-08-24T11:38:22;101565.00;;;27.40
44429;BMP180;30134;47.866;-4.222;2022-08-24T11:41:05;101557.00;;;27.50
44429;BMP180;30134;47.866;-4.222;2022-08-24T11:43:56;101563.00;;;27.30
44429;BMP180;30134;47.866;-4.222;2022-08-24T11:46:45;101560.00;;;27.60
44429;BMP180;30134;47.866;-4.222;2022-08-24T11:49:22;101553.00;;;27.60
44429;BMP180;30134;47.866;-4.222;2022-08-24T11:57:22;101548.00;;;27.80
44429;BMP180;30134;47.866;-4.222;2022-08-24T12:00:04;101542.00;;;27.70
44429;BMP180;30134;47.866;-4.222;2022-08-24T12:05:30;101543.00;;;27.70
44429;BMP180;30134;47.866;-4.222;2022-08-24T12:08:04;101545.00;;;27.70
44429;BMP180;30134;47.866;-4.222;2022-08-24T12:10:46;101545.00;;;27.80
44429;BMP180;30134;47.866;-4.222;2022-08-24T12:18:56;101539.00;;;27.70
44429;BMP180;30134;47.866;-4.222;2022-08-24T12:21:27;101543.00;;;27.90
44429;BMP180;30134;47.866;-4.222;2022-08-24T12:24:02;101541.00;;;27.70
44429;BMP180;30134;47.866;-4.222;2022-08-24T12:26:36;101547.00;;;27.90
44429;BMP180;30134;47.866;-4.222;2022-08-24T12:29:11;101542.00;;;27.80
44429;BMP180;30134;47.866;-4.222;2022-08-24T12:31:45;101547.00;;;27.90
44429;BMP180;30134;47.866;-4.222;2022-08-24T12:34:27;101553.00;;;27.80
44429;BMP180;30134;47.866;-4.222;2022-08-24T12:37:15;101550.00;;;27.80
44429;BMP180;30134;47.866;-4.222;2022-08-24T12:40:06;101555.00;;;27.80
44429;BMP180;30134;47.866;-4.222;2022-08-24T12:45:59;101556.00;;;27.90
44429;BMP180;30134;47.866;-4.222;2022-08-24T12:51:22;101567.00;;;27.90
44429;BMP180;30134;47.866;-4.222;2022-08-24T12:59:54;101575.00;;;27.90
44429;BMP180;30134;47.866;-4.222;2022-08-24T13:17:46;101600.00;;;27.50
44429;BMP180;30134;47.866;-4.222;2022-08-24T13:23:03;101605.00;;;27.50
44429;BMP180;30134;47.866;-4.222;2022-08-24T13:38:43;101600.00;;;27.60
44429;BMP180;30134;47.866;-4.222;2022-08-24T13:41:46;101600.00;;;27.60
44429;BMP180;30134;47.866;-4.222;2022-08-24T14:04:01;101579.00;;;27.80
44429;BMP180;30134;47.866;-4.222;2022-08-24T14:06:48;101581.00;;;27.60
44429;BMP180;30134;47.866;-4.222;2022-08-24T14:17:43;101578.00;;;27.40
44429;BMP180;30134;47.866;-4.222;2022-08-24T14:50:16;101567.00;;;27.70
44429;BMP180;30134;47.866;-4.222;2022-08-24T14:55:33;101566.00;;;27.70
44429;BMP180;30134;47.866;-4.222;2022-08-24T15:04:02;101569.00;;;27.70
44429;BMP180;30134;47.866;-4.222;2022-08-24T15:06:46;101569.00;;;27.50
44429;BMP180;30134;47.866;-4.222;2022-08-24T15:09:27;101564.00;;;27.70
44429;BMP180;30134;47.866;-4.222;2022-08-24T15:12:18;101565.00;;;27.60
44429;BMP180;30134;47.866;-4.222;2022-08-24T15:15:08;101570.00;;;27.80
44429;BMP180;30134;47.866;-4.222;2022-08-24T15:18:21;101573.00;;;27.90
44429;BMP180;30134;47.866;-4.222;2022-08-24T15:23:46;101564.00;;;27.60
44429;BMP180;30134;47.866;-4.222;2022-08-24T15:28:52;101563.00;;;27.80
44429;BMP180;30134;47.866;-4.222;2022-08-24T15:31:25;101564.00;;;27.80
44429;BMP180;30134;47.866;-4.222;2022-08-24T15:34:02;101567.00;;;27.80
44429;BMP180;30134;47.866;-4.222;2022-08-24T15:36:30;101573.00;;;27.70
44429;BMP180;30134;47.866;-4.222;2022-08-24T15:38:57;101584.00;;;27.70
44429;BMP180;30134;47.866;-4.222;2022-08-24T15:41:34;101582.00;;;27.80
44429;BMP180;30134;47.866;-4.222;2022-08-24T15:44:11;101583.00;;;27.80
44429;BMP180;30134;47.866;-4.222;2022-08-24T15:46:52;101576.00;;;27.80
44429;BMP180;30134;47.866;-4.222;2022-08-24T15:49:20;101567.00;;;27.60
44429;BMP180;30134;47.866;-4.222;2022-08-24T15:52:05;101571.00;;;27.80
44429;BMP180;30134;47.866;-4.222;2022-08-24T15:54:44;101564.00;;;27.70
44429;BMP180;30134;47.866;-4.222;2022-08-24T16:21:16;101549.00;;;27.70
44429;BMP180;30134;47.866;-4.222;2022-08-24T16:23:45;101550.00;;;27.70
44429;BMP180;30134;47.866;-4.222;2022-08-24T16:26:20;101546.00;;;27.70
44429;BMP180;30134;47.866;-4.222;2022-08-24T16:28:47;101554.00;;;27.80
44429;BMP180;30134;47.866;-4.222;2022-08-24T16:31:41;101548.00;;;27.80
44429;BMP180;30134;47.866;-4.222;2022-08-24T16:34:26;101559.00;;;27.90
44429;BMP180;30134;47.866;-4.222;2022-08-24T16:36:56;101561.00;;;27.70
44429;BMP180;30134;47.866;-4.222;2022-08-24T16:39:22;101558.00;;;27.80
44429;BMP180;30134;47.866;-4.222;2022-08-24T16:41:49;101548.00;;;27.80
44429;BMP180;30134;47.866;-4.222;2022-08-24T16:44:16;101549.00;;;27.70
44429;BMP180;30134;47.866;-4.222;2022-08-24T16:46:41;101562.00;;;27.90
44429;BMP180;30134;47.866;-4.222;2022-08-24T16:49:07;101568.00;;;27.80
44429;BMP180;30134;47.866;-4.222;2022-08-24T16:51:33;101567.00;;;27.90
44429;BMP180;30134;47.866;-4.222;2022-08-24T16:53:59;101566.00;;;27.80
44429;BMP180;30134;47.866;-4.222;2022-08-24T16:56:26;101556.00;;;27.80
44429;BMP180;30134;47.866;-4.222;2022-08-24T16:58:52;101567.00;;;27.90
44429;BMP180;30134;47.866;-4.222;2022-08-24T17:01:18;101561.00;;;27.90
44429;BMP180;30134;47.866;-4.222;2022-08-24T17:03:44;101543.00;;;27.70
44429;BMP180;30134;47.866;-4.222;2022-08-24T17:06:10;101529.00;;;28.00
44429;BMP180;30134;47.866;-4.222;2022-08-24T17:08:40;101509.00;;;27.90
44429;BMP180;30134;47.866;-4.222;2022-08-24T17:11:06;101498.00;;;28.00
44429;BMP180;30134;47.866;-4.222;2022-08-24T17:13:32;101502.00;;;27.80
44429;BMP180;30134;47.866;-4.222;2022-08-24T17:15:57;101508.00;;;27.90
44429;BMP180;30134;47.866;-4.222;2022-08-24T17:18:24;101542.00;;;28.00
44429;BMP180;30134;47.866;-4.222;2022-08-24T17:20:50;101579.00;;;28.00
44429;BMP180;30134;47.866;-4.222;2022-08-24T17:23:16;101574.00;;;27.80
44429;BMP180;30134;47.866;-4.222;2022-08-24T17:25:42;101572.00;;;28.00
44429;BMP180;30134;47.866;-4.222;2022-08-24T17:28:15;101573.00;;;27.70
44429;BMP180;30134;47.866;-4.222;2022-08-24T17:30:42;101578.00;;;27.80
44429;BMP180;30134;47.866;-4.222;2022-08-24T17:33:08;101574.00;;;27.80
44429;BMP180;30134;47.866;-4.222;2022-08-24T17:35:36;101595.00;;;27.80
44429;BMP180;30134;47.866;-4.222;2022-08-24T17:38:03;101596.00;;;27.90
44429;BMP180;30134;47.866;-4.222;2022-08-24T17:40:29;101590.00;;;28.00
44429;BMP180;30134;47.866;-4.222;2022-08-24T17:42:56;101585.00;;;28.00
44429;BMP180;30134;47.866;-4.222;2022-08-24T17:45:22;101567.00;;;27.90
44429;BMP180;30134;47.866;-4.222;2022-08-24T17:47:49;101567.00;;;27.90
44429;BMP180;30134;47.866;-4.222;2022-08-24T17:50:16;101567.00;;;28.00
44429;BMP180;30134;47.866;-4.222;2022-08-24T17:52:44;101547.00;;;27.80
44429;BMP180;30134;47.866;-4.222;2022-08-24T17:55:12;101551.00;;;27.90
44429;BMP180;30134;47.866;-4.222;2022-08-24T17:57:38;101551.00;;;28.10
44429;BMP180;30134;47.866;-4.222;2022-08-24T18:00:07;101558.00;;;28.00
44429;BMP180;30134;47.866;-4.222;2022-08-24T18:02:33;101553.00;;;28.20
44429;BMP180;30134;47.866;-4.222;2022-08-24T18:04:59;101551.00;;;28.00
44429;BMP180;30134;47.866;-4.222;2022-08-24T18:07:25;101546.00;;;28.20
44429;BMP180;30134;47.866;-4.222;2022-08-24T18:09:55;101544.00;;;28.00
44429;BMP180;30134;47.866;-4.222;2022-08-24T18:12:23;101554.00;;;28.20
44429;BMP180;30134;47.866;-4.222;2022-08-24T18:14:51;101557.00;;;28.10
44429;BMP180;30134;47.866;-4.222;2022-08-24T18:17:20;101549.00;;;28.10
44429;BMP180;30134;47.866;-4.222;2022-08-24T18:19:47;101546.00;;;28.10
44429;BMP180;30134;47.866;-4.222;2022-08-24T18:22:13;101548.00;;;28.00